Alaska — SYDS — position and weather

sailwx.info

Track history (hours):
 
Tides and Currents Weather Stations Pressure Air Temp Water Temp Dewpoint Dewpoint Depression Visibility Wind Speed Wind Dir Waves Ship Positions

Alaska

Last reported at 2015-Jul-14 07:19 UTC. Time now 2015-Aug-04 05:26 UTC.
Position N 26°30' W 015°41'.
Warning: this ship's position is 20 days out of date.

Length 274 m; draft 7.8 m.

Type: Tanker. MMSI: 240472000.

Date/timePositionNaut miles runAvg speedWind from/ knotsBaromVisibWave heightAir tempDewpointWater temp
2015-Jul-14 07:19N 26°30' W 015°41'2813.4
2015-Jul-14 05:12N 26°54' W 015°24'1313.3
2015-Jul-14 04:14N 27°06' W 015°19'1014.3
2015-Jul-14 03:33N 27°16' W 015°16'1513.8
2015-Jul-14 02:30N 27°30' W 015°13'1313.6
2015-Jul-14 01:33N 27°43' W 015°09'1413.8
2015-Jul-14 00:33N 27°56' W 015°05'1313.3
2015-Jul-13 23:33N 28°08' W 015°00'1313.2
2015-Jul-13 22:33N 28°21' W 014°55'1413.6
2015-Jul-13 21:33N 28°34' W 014°51'1313.5
2015-Jul-13 20:33N 28°47' W 014°47'1313.5
2015-Jul-13 19:33N 28°60' W 014°43'1313.4
2015-Jul-13 18:33N 29°13' W 014°39'1413.5
2015-Jul-13 17:33N 29°26' W 014°35'1313.5
2015-Jul-13 16:33N 29°39' W 014°30'1313.3
2015-Jul-13 15:33N 29°52' W 014°26'1313.0
2015-Jul-13 14:33N 30°04' W 014°22'1313.1
2015-Jul-13 13:33N 30°17' W 014°18'1312.9
2015-Jul-13 12:33N 30°29' W 014°14'1313.0
2015-Jul-13 11:33N 30°42' W 014°10'2713.0
2015-Jul-13 09:28N 31°08' W 014°02'5613.1
2015-Jul-13 05:11N 32°02' W 013°44'913.4
2015-Jul-13 04:33N 32°10' W 013°42'1513.6
2015-Jul-13 03:28N 32°24' W 013°37'5113.0
2015-Jul-12 23:31N 33°14' W 013°21'1212.9
2015-Jul-12 22:33N 33°26' W 013°17'6512.9
2015-Jul-12 17:30N 34°29' W 012°56'4113.3
2015-Jul-12 14:26N 35°08' W 012°43'22313.1
2015-Jul-11 21:28N 38°44' W 011°33'1213.5
2015-Jul-11 20:33N 38°56' W 011°29'1413.4
2015-Jul-11 19:32N 39°09' W 011°24'1313.0
2015-Jul-11 18:33N 39°21' W 011°20'1413.4
2015-Jul-11 17:31N 39°35' W 011°15'1313.2
2015-Jul-11 16:33N 39°47' W 011°11'1313.1
2015-Jul-11 15:33N 39°60' W 011°07'1513.1
2015-Jul-11 14:25N 40°14' W 011°02'2813.3
2015-Jul-11 12:20N 40°41' W 010°53'44113.0
2015-Jul-10 02:24N 47°28' W 006°56'2613.8
2015-Jul-10 00:32N 47°51' W 006°39'17812.5
2015-Jul-09 10:18N 49°51' W 003°18'912.6
2015-Jul-09 09:33N 49°56' W 003°05'1413.6
2015-Jul-09 08:33N 50°00' W 002°45'1514.9
2015-Jul-09 07:34N 50°04' W 002°23'1715.8
2015-Jul-09 06:29N 50°10' W 001°58'2814.6
2015-Jul-09 04:34N 50°17' W 001°16'1811.9
2015-Jul-09 03:05N 50°22' W 000°49'810.3
2015-Jul-09 02:21N 50°24' W 000°38'1210.4
2015-Jul-09 01:10N 50°27' W 000°19'811.0
2015-Jul-09 00:24N 50°29' W 000°07'1011.6
2015-Jul-08 23:34N 50°32' E 000°08'1312.8
2015-Jul-08 22:34N 50°35' E 000°28'1413.6
2015-Jul-08 21:33N 50°41' E 000°47'1414.2
2015-Jul-08 20:34N 50°49' E 001°05'1313.1
2015-Jul-08 19:34N 50°58' E 001°22'1212.4
2015-Jul-08 18:33N 51°07' E 001°35'1111.0
2015-Jul-08 17:34N 51°15' E 001°47'1111.4
2015-Jul-08 16:34N 51°25' E 001°55'1212.3
2015-Jul-08 15:33N 51°34' E 002°08'1313.4
2015-Jul-08 14:34N 51°44' E 002°22'5012.4
2015-Jul-08 10:32N 52°04' E 003°37'1111.5
2015-Jul-08 09:34N 52°03' E 003°55'9 8.9
2015-Jul-08 08:34N 51°58' E 004°07'2 2.4
2015-Jul-08 07:32N 51°56' E 004°10'0 0.0
2015-Jul-08 06:29N 51°56' E 004°10'0 0.0
2015-Jul-08 05:32N 51°56' E 004°10'0 0.0
2015-Jul-08 04:32N 51°56' E 004°10'0 0.0
2015-Jul-08 03:32N 51°56' E 004°10'0 0.0
2015-Jul-08 02:29N 51°56' E 004°10'0 0.0
2015-Jul-08 01:26N 51°56' E 004°10'0 0.0
2015-Jul-08 00:29N 51°56' E 004°10'0 0.0
2015-Jul-07 23:32N 51°56' E 004°10'0 0.0
2015-Jul-07 22:32N 51°56' E 004°10'0 0.0
2015-Jul-07 21:29N 51°56' E 004°10'0 0.0
2015-Jul-07 20:26N 51°56' E 004°10'0 0.0
2015-Jul-07 19:32N 51°56' E 004°10'0 0.0
2015-Jul-07 18:32N 51°56' E 004°10'0 0.0
2015-Jul-07 17:23N 51°56' E 004°10'0 0.0
2015-Jul-07 16:23N 51°56' E 004°10'0 0.0
2015-Jul-07 15:29N 51°56' E 004°10'0 0.0
2015-Jul-07 14:32N 51°56' E 004°10'0 0.0
2015-Jul-07 13:32N 51°56' E 004°10'0 0.0
2015-Jul-07 12:32N 51°56' E 004°10'0 0.0
2015-Jul-07 11:26N 51°56' E 004°10'0 0.0
2015-Jul-07 10:32N 51°56' E 004°10'0 0.0
2015-Jul-07 09:26N 51°56' E 004°10'0 0.0
2015-Jul-07 08:11N 51°56' E 004°10'0 0.0
2015-Jul-07 07:29N 51°56' E 004°10'0 0.0
2015-Jul-07 06:29N 51°56' E 004°10'0 0.0
2015-Jul-07 05:23N 51°56' E 004°10'0 0.0
2015-Jul-07 04:26N 51°56' E 004°10'0 0.0
2015-Jul-07 03:29N 51°56' E 004°10'0 0.0
2015-Jul-07 02:23N 51°56' E 004°10'0 0.0
2015-Jul-07 01:32N 51°56' E 004°10'0 0.0
2015-Jul-07 00:29N 51°56' E 004°10'0 0.0
2015-Jul-06 23:29N 51°56' E 004°10'0 0.0
2015-Jul-06 22:23N 51°56' E 004°10'0 0.0
2015-Jul-06 21:33N 51°56' E 004°10'3 2.5
2015-Jul-06 20:33N 51°58' E 004°07'10 9.6
2015-Jul-06 19:33N 52°02' E 003°52'1110.8
2015-Jul-06 18:33N 52°00' E 003°35'1211.9
2015-Jul-06 17:33N 51°58' E 003°16'4 3.9
2015-Jul-06 16:33N 52°00' E 003°10'0 0.0
2015-Jul-06 15:33N 52°00' E 003°10'0 0.2
2015-Jul-06 14:30N 52°00' E 003°10'0 0.1
2015-Jul-06 13:27N 52°00' E 003°10'0 0.0
2015-Jul-06 12:33N 52°00' E 003°10'0 0.1
2015-Jul-06 10:22N 52°00' E 003°10'8 9.1
2015-Jul-06 09:32N 51°56' E 002°60'2612.6
2015-Jul-06 07:29N 51°40' E 002°28'1213.0
2015-Jul-06 06:33N 51°30' E 002°15'1313.3
2015-Jul-06 05:33N 51°21' E 001°60'1413.9
2015-Jul-06 04:33N 51°10' E 001°45'1514.8
2015-Jul-06 03:33N 50°58' E 001°32'1615.1
2015-Jul-06 02:29N 50°43' E 001°22'9913.6
2015-Jul-05 19:13N 50°00' W 000°57'2211.6
2015-Jul-05 17:22N 49°52' W 001°28'  
Track history (hours):
 
Tides and Currents Weather Stations Pressure Air Temp Water Temp Dewpoint Dewpoint Depression Visibility Wind Speed Wind Dir Waves Ship Positions

Alaska

Last reported at 2015-Jul-14 07:19 UTC. Time now 2015-Aug-04 05:26 UTC.
Position N 26°30' W 015°41'.
Warning: this ship's position is 20 days out of date.

Length 274 m; draft 7.8 m.

Type: Tanker. MMSI: 240472000.

Date/timePositionNaut miles runAvg speedWind from/ knotsBaromVisibWave heightAir tempDewpointWater temp
2015-Jul-14 07:19N 26°30' W 015°41'2813.4
2015-Jul-14 05:12N 26°54' W 015°24'1313.3
2015-Jul-14 04:14N 27°06' W 015°19'1014.3
2015-Jul-14 03:33N 27°16' W 015°16'1513.8
2015-Jul-14 02:30N 27°30' W 015°13'1313.6
2015-Jul-14 01:33N 27°43' W 015°09'1413.8
2015-Jul-14 00:33N 27°56' W 015°05'1313.3
2015-Jul-13 23:33N 28°08' W 015°00'1313.2
2015-Jul-13 22:33N 28°21' W 014°55'1413.6
2015-Jul-13 21:33N 28°34' W 014°51'1313.5
2015-Jul-13 20:33N 28°47' W 014°47'1313.5
2015-Jul-13 19:33N 28°60' W 014°43'1313.4
2015-Jul-13 18:33N 29°13' W 014°39'1413.5
2015-Jul-13 17:33N 29°26' W 014°35'1313.5
2015-Jul-13 16:33N 29°39' W 014°30'1313.3
2015-Jul-13 15:33N 29°52' W 014°26'1313.0
2015-Jul-13 14:33N 30°04' W 014°22'1313.1
2015-Jul-13 13:33N 30°17' W 014°18'1312.9
2015-Jul-13 12:33N 30°29' W 014°14'1313.0
2015-Jul-13 11:33N 30°42' W 014°10'2713.0
2015-Jul-13 09:28N 31°08' W 014°02'5613.1
2015-Jul-13 05:11N 32°02' W 013°44'913.4
2015-Jul-13 04:33N 32°10' W 013°42'1513.6
2015-Jul-13 03:28N 32°24' W 013°37'5113.0
2015-Jul-12 23:31N 33°14' W 013°21'1212.9
2015-Jul-12 22:33N 33°26' W 013°17'6512.9
2015-Jul-12 17:30N 34°29' W 012°56'4113.3
2015-Jul-12 14:26N 35°08' W 012°43'22313.1
2015-Jul-11 21:28N 38°44' W 011°33'1213.5
2015-Jul-11 20:33N 38°56' W 011°29'1413.4
2015-Jul-11 19:32N 39°09' W 011°24'1313.0
2015-Jul-11 18:33N 39°21' W 011°20'1413.4
2015-Jul-11 17:31N 39°35' W 011°15'1313.2
2015-Jul-11 16:33N 39°47' W 011°11'1313.1
2015-Jul-11 15:33N 39°60' W 011°07'1513.1
2015-Jul-11 14:25N 40°14' W 011°02'2813.3
2015-Jul-11 12:20N 40°41' W 010°53'44113.0
2015-Jul-10 02:24N 47°28' W 006°56'2613.8
2015-Jul-10 00:32N 47°51' W 006°39'17812.5
2015-Jul-09 10:18N 49°51' W 003°18'912.6
2015-Jul-09 09:33N 49°56' W 003°05'1413.6
2015-Jul-09 08:33N 50°00' W 002°45'1514.9
2015-Jul-09 07:34N 50°04' W 002°23'1715.8
2015-Jul-09 06:29N 50°10' W 001°58'2814.6
2015-Jul-09 04:34N 50°17' W 001°16'1811.9
2015-Jul-09 03:05N 50°22' W 000°49'810.3
2015-Jul-09 02:21N 50°24' W 000°38'1210.4
2015-Jul-09 01:10N 50°27' W 000°19'811.0
2015-Jul-09 00:24N 50°29' W 000°07'1011.6
2015-Jul-08 23:34N 50°32' E 000°08'1312.8
2015-Jul-08 22:34N 50°35' E 000°28'1413.6
2015-Jul-08 21:33N 50°41' E 000°47'1414.2
2015-Jul-08 20:34N 50°49' E 001°05'1313.1
2015-Jul-08 19:34N 50°58' E 001°22'1212.4
2015-Jul-08 18:33N 51°07' E 001°35'1111.0
2015-Jul-08 17:34N 51°15' E 001°47'1111.4
2015-Jul-08 16:34N 51°25' E 001°55'1212.3
2015-Jul-08 15:33N 51°34' E 002°08'1313.4
2015-Jul-08 14:34N 51°44' E 002°22'5012.4
2015-Jul-08 10:32N 52°04' E 003°37'1111.5
2015-Jul-08 09:34N 52°03' E 003°55'9 8.9
2015-Jul-08 08:34N 51°58' E 004°07'2 2.4
2015-Jul-08 07:32N 51°56' E 004°10'0 0.0
2015-Jul-08 06:29N 51°56' E 004°10'0 0.0
2015-Jul-08 05:32N 51°56' E 004°10'0 0.0
2015-Jul-08 04:32N 51°56' E 004°10'0 0.0
2015-Jul-08 03:32N 51°56' E 004°10'0 0.0
2015-Jul-08 02:29N 51°56' E 004°10'0 0.0
2015-Jul-08 01:26N 51°56' E 004°10'0 0.0
2015-Jul-08 00:29N 51°56' E 004°10'0 0.0
2015-Jul-07 23:32N 51°56' E 004°10'0 0.0
2015-Jul-07 22:32N 51°56' E 004°10'0 0.0
2015-Jul-07 21:29N 51°56' E 004°10'0 0.0
2015-Jul-07 20:26N 51°56' E 004°10'0 0.0
2015-Jul-07 19:32N 51°56' E 004°10'0 0.0
2015-Jul-07 18:32N 51°56' E 004°10'0 0.0
2015-Jul-07 17:23N 51°56' E 004°10'0 0.0
2015-Jul-07 16:23N 51°56' E 004°10'0 0.0
2015-Jul-07 15:29N 51°56' E 004°10'0 0.0
2015-Jul-07 14:32N 51°56' E 004°10'0 0.0
2015-Jul-07 13:32N 51°56' E 004°10'0 0.0
2015-Jul-07 12:32N 51°56' E 004°10'0 0.0
2015-Jul-07 11:26N 51°56' E 004°10'0 0.0
2015-Jul-07 10:32N 51°56' E 004°10'0 0.0
2015-Jul-07 09:26N 51°56' E 004°10'0 0.0
2015-Jul-07 08:11N 51°56' E 004°10'0 0.0
2015-Jul-07 07:29N 51°56' E 004°10'0 0.0
2015-Jul-07 06:29N 51°56' E 004°10'0 0.0
2015-Jul-07 05:23N 51°56' E 004°10'0 0.0
2015-Jul-07 04:26N 51°56' E 004°10'0 0.0
2015-Jul-07 03:29N 51°56' E 004°10'0 0.0
2015-Jul-07 02:23N 51°56' E 004°10'0 0.0
2015-Jul-07 01:32N 51°56' E 004°10'0 0.0
2015-Jul-07 00:29N 51°56' E 004°10'0 0.0
2015-Jul-06 23:29N 51°56' E 004°10'0 0.0
2015-Jul-06 22:23N 51°56' E 004°10'0 0.0
2015-Jul-06 21:33N 51°56' E 004°10'3 2.5
2015-Jul-06 20:33N 51°58' E 004°07'10 9.6
2015-Jul-06 19:33N 52°02' E 003°52'1110.8
2015-Jul-06 18:33N 52°00' E 003°35'1211.9
2015-Jul-06 17:33N 51°58' E 003°16'4 3.9
2015-Jul-06 16:33N 52°00' E 003°10'0 0.0
2015-Jul-06 15:33N 52°00' E 003°10'0 0.2
2015-Jul-06 14:30N 52°00' E 003°10'0 0.1
2015-Jul-06 13:27N 52°00' E 003°10'0 0.0
2015-Jul-06 12:33N 52°00' E 003°10'0 0.1
2015-Jul-06 10:22N 52°00' E 003°10'8 9.1
2015-Jul-06 09:32N 51°56' E 002°60'2612.6
2015-Jul-06 07:29N 51°40' E 002°28'1213.0
2015-Jul-06 06:33N 51°30' E 002°15'1313.3
2015-Jul-06 05:33N 51°21' E 001°60'1413.9
2015-Jul-06 04:33N 51°10' E 001°45'1514.8
2015-Jul-06 03:33N 50°58' E 001°32'1615.1
2015-Jul-06 02:29N 50°43' E 001°22'9913.6
2015-Jul-05 19:13N 50°00' W 000°57'2211.6
2015-Jul-05 17:22N 49°52' W 001°28'  

Dump ship's entire track history